createdAt,value
2023-09-11T00:01:08.027Z,23.81
2023-09-11T00:03:35.715Z,23.74
2023-09-11T00:06:07.395Z,23.81
2023-09-11T00:08:35.383Z,23.82
2023-09-11T00:11:03.356Z,23.76
2023-09-11T00:13:32.311Z,23.79
2023-09-11T00:16:00.572Z,23.77
2023-09-11T00:18:28.208Z,23.70
2023-09-11T00:20:55.850Z,23.75
2023-09-11T00:23:23.512Z,23.66
2023-09-11T00:25:51.191Z,23.61
2023-09-11T00:28:18.859Z,23.65
2023-09-11T00:30:46.529Z,23.69
2023-09-11T00:33:14.325Z,23.67
2023-09-11T00:35:46.043Z,23.65
2023-09-11T00:38:13.758Z,23.46
2023-09-11T00:40:41.395Z,23.45
2023-09-11T00:43:08.970Z,23.40
2023-09-11T00:45:38.038Z,23.34
2023-09-11T00:48:06.839Z,23.43
2023-09-11T00:50:34.840Z,23.27
2023-09-11T00:53:04.034Z,23.24
2023-09-11T00:55:31.695Z,23.31
2023-09-11T00:58:00.532Z,23.20
2023-09-11T01:00:28.294Z,23.22
2023-09-11T01:02:59.016Z,23.20
2023-09-11T01:05:27.948Z,23.24
2023-09-11T01:07:55.680Z,23.17
2023-09-11T01:10:23.925Z,23.17
2023-09-11T01:12:52.049Z,23.15
2023-09-11T01:15:19.664Z,23.06
2023-09-11T01:18:09.131Z,23.00
2023-09-11T01:20:55.810Z,23.06
2023-09-11T01:23:35.627Z,23.06
2023-09-11T01:26:08.275Z,23.01
2023-09-11T01:29:03.698Z,23.00
2023-09-11T01:31:33.976Z,22.98
2023-09-11T01:34:03.266Z,22.89
2023-09-11T01:36:31.057Z,23.02
2023-09-11T01:38:59.114Z,23.06
2023-09-11T01:41:31.805Z,23.02
2023-09-11T01:44:02.572Z,23.03
2023-09-11T01:46:30.976Z,22.88
2023-09-11T01:48:59.953Z,22.82
2023-09-11T01:51:29.368Z,22.79
2023-09-11T01:53:58.018Z,22.79
2023-09-11T01:56:25.758Z,22.83
2023-09-11T01:58:53.350Z,22.76
2023-09-11T02:01:20.969Z,22.85
2023-09-11T02:03:48.745Z,22.82
2023-09-11T02:06:16.406Z,22.74
2023-09-11T02:08:44.257Z,22.81
2023-09-11T02:11:12.067Z,22.77
2023-09-11T02:13:39.719Z,22.69
2023-09-11T02:16:07.369Z,22.74
2023-09-11T02:18:35.050Z,22.76
2023-09-11T02:21:02.597Z,22.74
2023-09-11T02:23:30.192Z,22.80
2023-09-11T02:25:57.838Z,22.79
2023-09-11T02:28:25.721Z,22.61
2023-09-11T02:30:53.275Z,22.59
2023-09-11T02:33:20.937Z,22.61
2023-09-11T02:35:57.420Z,22.69
2023-09-11T02:38:25.669Z,22.53
2023-09-11T02:41:06.902Z,22.43
2023-09-11T02:43:36.422Z,22.48
2023-09-11T02:46:04.069Z,22.45
2023-09-11T02:48:33.156Z,22.44
2023-09-11T02:51:01.102Z,22.34
2023-09-11T02:53:28.807Z,22.29
2023-09-11T02:55:56.425Z,22.27
2023-09-11T02:58:24.060Z,22.31
2023-09-11T03:00:51.621Z,22.25
2023-09-11T03:03:19.304Z,22.18
2023-09-11T03:05:47.096Z,22.16
2023-09-11T03:08:14.807Z,22.11
2023-09-11T03:10:42.502Z,22.02
2023-09-11T03:13:10.118Z,22.02
2023-09-11T03:15:37.695Z,22.02
2023-09-11T03:18:05.438Z,21.99
2023-09-11T03:20:33.266Z,22.03
2023-09-11T03:23:01.597Z,22.03
2023-09-11T03:25:30.146Z,22.03
2023-09-11T03:27:57.731Z,21.99
2023-09-11T03:30:25.315Z,21.94
2023-09-11T03:32:53.200Z,21.92
2023-09-11T03:35:20.910Z,21.91
2023-09-11T03:37:48.497Z,21.78
2023-09-11T03:40:16.367Z,21.75
2023-09-11T03:42:43.911Z,21.79
2023-09-11T03:45:11.812Z,21.83
2023-09-11T03:47:39.535Z,21.74
2023-09-11T03:50:09.193Z,21.83
2023-09-11T03:52:36.792Z,21.76
2023-09-11T03:55:05.448Z,21.78
2023-09-11T03:57:33.263Z,21.79
2023-09-11T04:00:00.924Z,21.82
2023-09-11T04:02:28.558Z,21.80
2023-09-11T04:04:56.172Z,21.78
2023-09-11T04:07:23.901Z,21.79
2023-09-11T04:09:51.488Z,21.76
2023-09-11T04:12:19.594Z,21.72
2023-09-11T04:14:47.251Z,21.68
2023-09-11T04:17:14.824Z,21.64
2023-09-11T04:19:42.601Z,21.57
2023-09-11T04:22:10.480Z,21.68
2023-09-11T04:24:38.023Z,21.73
2023-09-11T04:27:06.454Z,21.60
2023-09-11T04:29:34.046Z,21.65
2023-09-11T04:32:01.792Z,21.59
2023-09-11T04:34:29.590Z,21.54
2023-09-11T04:36:57.303Z,21.45
2023-09-11T04:39:24.986Z,21.56
2023-09-11T04:41:52.570Z,21.56
2023-09-11T04:44:20.116Z,21.49
2023-09-11T04:46:47.753Z,21.53
2023-09-11T04:49:15.435Z,21.53
2023-09-11T04:51:43.412Z,21.59
2023-09-11T04:54:10.955Z,21.45
2023-09-11T04:56:38.870Z,21.38
2023-09-11T04:59:06.465Z,21.42
2023-09-11T05:01:34.851Z,21.43
2023-09-11T05:04:04.052Z,21.44
2023-09-11T05:06:32.400Z,21.42
2023-09-11T05:09:12.171Z,21.49
2023-09-11T05:11:40.398Z,21.60
2023-09-11T05:14:08.066Z,21.58
2023-09-11T05:16:35.731Z,21.54
2023-09-11T05:19:03.645Z,21.57
2023-09-11T05:21:32.037Z,21.55
2023-09-11T05:23:59.729Z,21.64
2023-09-11T05:26:27.407Z,21.66
2023-09-11T05:28:55.034Z,21.69
2023-09-11T05:31:22.652Z,21.71
2023-09-11T05:33:50.307Z,21.75
2023-09-11T05:36:18.189Z,21.73
2023-09-11T05:38:45.812Z,21.80
2023-09-11T05:41:13.516Z,21.85
2023-09-11T05:43:41.621Z,21.85
2023-09-11T05:46:10.048Z,21.79
2023-09-11T05:48:37.825Z,21.77
2023-09-11T05:51:05.536Z,21.80
2023-09-11T05:53:33.243Z,21.75
2023-09-11T05:56:01.268Z,21.79
2023-09-11T05:58:28.819Z,21.77
2023-09-11T06:00:56.525Z,21.75
2023-09-11T06:03:24.334Z,21.82
2023-09-11T06:05:52.125Z,21.91
2023-09-11T06:08:19.846Z,21.99
2023-09-11T06:10:47.693Z,21.98
2023-09-11T06:13:15.296Z,22.09
2023-09-11T06:15:43.015Z,22.00
2023-09-11T06:18:10.808Z,22.05
2023-09-11T06:20:38.851Z,22.07
2023-09-11T06:23:06.520Z,22.20
2023-09-11T06:25:34.068Z,22.37
2023-09-11T06:28:01.696Z,22.42
2023-09-11T06:30:29.401Z,22.53
2023-09-11T06:32:57.105Z,22.60
2023-09-11T06:35:25.092Z,22.76
2023-09-11T06:37:52.741Z,22.74
2023-09-11T06:40:20.377Z,22.75
2023-09-11T06:42:48.014Z,22.80
2023-09-11T06:45:15.824Z,22.86
2023-09-11T06:47:43.625Z,22.91
2023-09-11T06:50:12.652Z,22.99
2023-09-11T06:52:42.040Z,23.23
2023-09-11T06:55:10.192Z,23.27
2023-09-11T06:57:43.407Z,23.39
2023-09-11T07:00:15.972Z,23.51
2023-09-11T07:02:49.092Z,23.68
2023-09-11T07:05:21.384Z,23.71
2023-09-11T07:07:49.467Z,23.85
2023-09-11T07:10:30.117Z,23.88
2023-09-11T07:13:02.306Z,24.06
2023-09-11T07:15:30.035Z,24.14
2023-09-11T07:17:57.817Z,24.26
2023-09-11T07:20:25.492Z,24.35
2023-09-11T07:22:53.195Z,24.40
2023-09-11T07:25:24.014Z,24.57
2023-09-11T07:27:52.055Z,24.54
2023-09-11T07:30:19.682Z,24.55
2023-09-11T07:32:47.415Z,24.81
2023-09-11T07:35:15.208Z,24.87
2023-09-11T07:37:42.913Z,25.07
2023-09-11T07:40:11.062Z,25.26
2023-09-11T07:42:38.649Z,25.28
2023-09-11T07:45:07.676Z,25.42
2023-09-11T07:47:35.612Z,25.59
2023-09-11T07:50:03.295Z,25.38
2023-09-11T07:52:30.905Z,25.63
2023-09-11T07:55:00.042Z,25.62
2023-09-11T07:57:27.716Z,25.70
2023-09-11T07:59:55.419Z,25.85
2023-09-11T08:02:23.052Z,26.11
2023-09-11T08:04:51.052Z,25.94
2023-09-11T08:07:18.755Z,26.16
2023-09-11T08:09:47.626Z,25.92
2023-09-11T08:12:16.358Z,26.14
2023-09-11T08:14:44.515Z,26.06
2023-09-11T08:17:13.302Z,26.11
2023-09-11T08:19:41.126Z,26.32
2023-09-11T08:22:08.853Z,26.30
2023-09-11T08:24:36.513Z,26.34
2023-09-11T08:27:04.191Z,26.55
2023-09-11T08:29:31.846Z,26.34
2023-09-11T08:31:59.514Z,26.64
2023-09-11T08:34:27.137Z,26.66
2023-09-11T08:36:54.856Z,26.75
2023-09-11T08:39:22.495Z,26.91
2023-09-11T08:41:51.990Z,27.12
2023-09-11T08:44:19.650Z,27.16
2023-09-11T08:46:48.067Z,27.27
2023-09-11T08:49:23.018Z,27.52
2023-09-11T08:51:55.418Z,27.48
2023-09-11T08:54:30.406Z,27.62
2023-09-11T08:56:59.324Z,28.04
2023-09-11T08:59:31.027Z,28.32
2023-09-11T09:01:59.811Z,28.58
2023-09-11T09:04:28.241Z,29.02
2023-09-11T09:06:56.760Z,29.28
2023-09-11T09:09:24.985Z,29.59
2023-09-11T09:11:53.505Z,29.64
2023-09-11T09:14:21.820Z,30.02
2023-09-11T09:16:50.253Z,30.22
2023-09-11T09:19:17.942Z,30.42
2023-09-11T09:22:03.661Z,30.46
2023-09-11T09:24:31.251Z,30.53
2023-09-11T09:27:00.325Z,30.30
2023-09-11T09:29:28.503Z,30.49
2023-09-11T09:31:57.203Z,30.69
2023-09-11T09:34:24.910Z,30.62
2023-09-11T09:36:57.119Z,30.47
2023-09-11T09:39:29.274Z,30.73
2023-09-11T09:41:59.194Z,30.87
2023-09-11T09:44:37.487Z,31.11
2023-09-11T09:47:08.930Z,31.43
2023-09-11T09:49:43.644Z,31.69
2023-09-11T09:52:11.211Z,31.44
2023-09-11T09:54:50.463Z,31.28
2023-09-11T09:57:21.880Z,31.49
2023-09-11T09:59:51.144Z,31.45
2023-09-11T10:02:30.948Z,31.13
2023-09-11T10:05:04.113Z,31.77
2023-09-11T10:07:43.026Z,31.29
2023-09-11T10:10:31.236Z,31.36
2023-09-11T10:13:11.239Z,32.01
2023-09-11T10:15:40.274Z,31.83
2023-09-11T10:18:10.558Z,31.69
2023-09-11T10:20:38.626Z,31.77
2023-09-11T10:23:08.006Z,31.96
2023-09-11T10:25:41.105Z,32.07
2023-09-11T10:28:10.599Z,32.40
2023-09-11T10:31:08.189Z,31.65
2023-09-11T10:33:38.245Z,32.08
2023-09-11T10:36:12.430Z,31.79
2023-09-11T10:38:40.863Z,32.55
2023-09-11T10:41:10.806Z,32.80
2023-09-11T10:43:39.107Z,32.20
2023-09-11T10:46:33.470Z,31.72
2023-09-11T10:49:01.836Z,32.03
2023-09-11T10:51:30.766Z,32.06
2023-09-11T10:53:58.498Z,32.71
2023-09-11T10:56:26.298Z,33.01
2023-09-11T10:58:54.402Z,32.40
2023-09-11T11:01:24.038Z,32.98
2023-09-11T11:03:52.276Z,33.31
2023-09-11T11:06:24.794Z,33.56
2023-09-11T11:08:52.982Z,33.40
2023-09-11T11:11:23.572Z,33.86
2023-09-11T11:14:16.000Z,33.71
2023-09-11T11:17:09.467Z,33.82
2023-09-11T11:19:40.655Z,33.54
2023-09-11T11:22:10.280Z,33.11
2023-09-11T11:24:56.279Z,33.66
2023-09-11T11:27:24.828Z,33.52
2023-09-11T11:29:54.193Z,33.45
2023-09-11T11:32:25.693Z,33.22
2023-09-11T11:34:53.602Z,32.75
2023-09-11T11:37:22.859Z,32.85
2023-09-11T11:39:51.037Z,33.00
2023-09-11T11:42:19.696Z,32.98
2023-09-11T11:44:47.550Z,33.33
2023-09-11T11:47:17.050Z,32.69
2023-09-11T11:49:46.509Z,33.18
2023-09-11T11:52:14.261Z,33.19
2023-09-11T11:54:43.242Z,33.16
2023-09-11T11:57:11.011Z,33.41
2023-09-11T11:59:43.143Z,33.29
2023-09-11T12:02:26.726Z,33.04
2023-09-11T12:04:56.259Z,33.35
2023-09-11T12:07:25.344Z,33.39
2023-09-11T12:09:53.249Z,32.74
2023-09-11T12:12:21.850Z,33.09
2023-09-11T12:14:49.631Z,33.21
2023-09-11T12:17:17.278Z,33.33
2023-09-11T12:19:44.943Z,32.92
2023-09-11T12:22:12.600Z,32.91
2023-09-11T12:24:40.291Z,32.57
2023-09-11T12:27:08.697Z,32.20
2023-09-11T12:29:36.613Z,32.52
2023-09-11T12:32:04.381Z,33.08
2023-09-11T12:34:50.459Z,33.17
2023-09-11T12:37:18.162Z,33.24
2023-09-11T12:39:45.864Z,33.05
2023-09-11T12:42:14.785Z,33.41
2023-09-11T12:44:43.259Z,33.42
2023-09-11T12:47:11.005Z,33.39
2023-09-11T12:49:39.123Z,33.24
2023-09-11T12:52:07.307Z,32.82
2023-09-11T12:54:34.968Z,33.06
2023-09-11T12:57:03.247Z,32.83
2023-09-11T12:59:31.035Z,32.58
2023-09-11T13:01:59.628Z,32.06
2023-09-11T13:04:30.592Z,32.12
2023-09-11T13:06:58.261Z,32.09
2023-09-11T13:09:26.318Z,31.86
2023-09-11T13:11:53.979Z,32.26
2023-09-11T13:14:21.619Z,31.98
2023-09-11T13:16:49.515Z,31.62
2023-09-11T13:19:18.252Z,31.37
2023-09-11T13:21:46.147Z,31.59
2023-09-11T13:24:13.977Z,31.76
2023-09-11T13:26:43.615Z,31.69
2023-09-11T13:29:11.386Z,31.76
2023-09-11T13:31:39.000Z,31.69
2023-09-11T13:34:06.839Z,31.36
2023-09-11T13:36:34.743Z,31.09
2023-09-11T13:39:02.569Z,31.02
2023-09-11T13:41:30.254Z,30.58
2023-09-11T13:43:57.813Z,30.47
2023-09-11T13:46:25.545Z,30.15
2023-09-11T13:48:53.338Z,30.05
2023-09-11T13:51:21.009Z,29.76
2023-09-11T13:53:48.721Z,29.77
2023-09-11T13:56:16.400Z,29.79
2023-09-11T13:58:45.368Z,29.23
2023-09-11T14:01:15.225Z,29.53
2023-09-11T14:03:42.947Z,29.30
2023-09-11T14:06:10.762Z,29.29
2023-09-11T14:08:38.501Z,29.19
2023-09-11T14:11:06.100Z,28.96
2023-09-11T14:13:33.654Z,28.92
2023-09-11T14:16:01.278Z,28.70
2023-09-11T14:18:29.280Z,28.89
2023-09-11T14:20:57.064Z,28.56
2023-09-11T14:23:24.749Z,28.59
2023-09-11T14:25:52.352Z,28.67
2023-09-11T14:28:19.958Z,28.32
2023-09-11T14:30:47.840Z,28.42
2023-09-11T14:33:15.652Z,28.25
2023-09-11T14:35:43.279Z,28.22
2023-09-11T14:38:10.962Z,28.04
2023-09-11T14:40:38.885Z,27.82
2023-09-11T14:43:06.470Z,27.36
2023-09-11T14:45:34.037Z,27.36
2023-09-11T14:48:01.769Z,27.35
2023-09-11T14:50:29.407Z,27.40
2023-09-11T14:52:56.992Z,26.87
2023-09-11T14:55:24.916Z,27.04
2023-09-11T14:57:52.555Z,27.25
2023-09-11T15:00:20.335Z,27.24
2023-09-11T15:02:48.081Z,27.15
2023-09-11T15:05:15.909Z,27.20
2023-09-11T15:07:43.784Z,27.09
2023-09-11T15:10:12.091Z,27.41
2023-09-11T15:12:39.625Z,27.11
2023-09-11T15:15:07.976Z,26.98
2023-09-11T15:17:35.733Z,27.13
2023-09-11T15:20:03.445Z,26.85
2023-09-11T15:22:31.004Z,26.85
2023-09-11T15:24:59.738Z,26.80
2023-09-11T15:27:27.469Z,26.77
2023-09-11T15:29:55.043Z,26.55
2023-09-11T15:32:22.673Z,26.29
2023-09-11T15:34:51.049Z,26.29
2023-09-11T15:37:19.328Z,26.37
2023-09-11T15:39:48.389Z,26.49
2023-09-11T15:42:16.026Z,26.47
2023-09-11T15:44:43.664Z,26.37
2023-09-11T15:47:11.316Z,26.26
2023-09-11T15:49:39.635Z,26.22
2023-09-11T15:52:07.719Z,26.35
2023-09-11T15:54:35.578Z,26.42
2023-09-11T15:57:03.435Z,26.37
2023-09-11T15:59:31.525Z,26.15
2023-09-11T16:01:59.420Z,26.09
2023-09-11T16:04:27.294Z,25.92
2023-09-11T16:06:55.654Z,25.71
2023-09-11T16:09:23.410Z,25.76
2023-09-11T16:11:52.228Z,25.77
2023-09-11T16:14:20.121Z,25.76
2023-09-11T16:16:51.496Z,25.56
2023-09-11T16:19:22.330Z,25.47
2023-09-11T16:21:50.462Z,25.33
2023-09-11T16:24:18.419Z,25.15
2023-09-11T16:26:46.145Z,25.01
2023-09-11T16:29:14.912Z,25.16
2023-09-11T16:31:42.670Z,25.07
2023-09-11T16:34:11.624Z,24.89
2023-09-11T16:36:39.927Z,25.00
2023-09-11T16:39:07.720Z,25.02
2023-09-11T16:41:35.656Z,24.90
2023-09-11T16:44:03.366Z,24.73
2023-09-11T16:46:31.061Z,24.50
2023-09-11T16:48:58.740Z,24.32
2023-09-11T16:51:26.531Z,24.27
2023-09-11T16:53:54.233Z,24.18
2023-09-11T16:56:21.927Z,24.01
2023-09-11T16:58:49.610Z,23.92
2023-09-11T17:01:19.378Z,23.98
2023-09-11T17:03:47.105Z,23.85
2023-09-11T17:06:14.711Z,23.77
2023-09-11T17:08:42.685Z,23.69
2023-09-11T17:11:10.420Z,23.81
2023-09-11T17:13:38.023Z,23.85
2023-09-11T17:16:05.841Z,23.68
2023-09-11T17:18:33.583Z,23.66
2023-09-11T17:21:05.585Z,23.66
2023-09-11T17:23:33.018Z,23.78
2023-09-11T17:26:00.641Z,23.75
2023-09-11T17:28:28.275Z,23.77
2023-09-11T17:30:55.922Z,23.84
2023-09-11T17:33:23.709Z,23.66
2023-09-11T17:35:51.529Z,23.68
2023-09-11T17:38:19.547Z,23.64
2023-09-11T17:40:47.093Z,23.59
2023-09-11T17:43:14.757Z,23.54
2023-09-11T17:45:42.336Z,23.54
2023-09-11T17:48:10.640Z,23.58
2023-09-11T17:50:38.363Z,23.40
2023-09-11T17:53:05.993Z,23.44
2023-09-11T17:55:33.551Z,23.53
2023-09-11T17:58:01.153Z,23.52
2023-09-11T18:00:28.917Z,23.47
2023-09-11T18:02:56.705Z,23.34
2023-09-11T18:05:24.340Z,23.28
2023-09-11T18:07:51.996Z,23.22
2023-09-11T18:10:19.621Z,23.38
2023-09-11T18:12:47.198Z,23.20
2023-09-11T18:15:14.965Z,23.21
2023-09-11T18:17:43.817Z,23.32
2023-09-11T18:20:12.142Z,23.38
2023-09-11T18:22:39.701Z,23.37
2023-09-11T18:25:07.386Z,23.36
2023-09-11T18:27:36.979Z,23.33
2023-09-11T18:30:05.653Z,23.35
2023-09-11T18:32:33.327Z,23.32
2023-09-11T18:35:01.028Z,23.19
2023-09-11T18:37:28.672Z,23.13
2023-09-11T18:39:56.445Z,23.00
2023-09-11T18:42:24.087Z,23.02
2023-09-11T18:44:51.785Z,23.03
2023-09-11T18:47:19.351Z,23.04
2023-09-11T18:49:46.943Z,23.05
2023-09-11T18:52:14.773Z,23.06
2023-09-11T18:54:43.541Z,23.13
2023-09-11T18:57:11.488Z,23.11
2023-09-11T18:59:39.056Z,23.04
2023-09-11T19:02:07.197Z,23.01
2023-09-11T19:04:34.888Z,22.96
2023-09-11T19:07:02.538Z,22.95
2023-09-11T19:09:31.242Z,22.82
2023-09-11T19:11:58.920Z,22.82
2023-09-11T19:14:27.057Z,22.87
2023-09-11T19:16:54.778Z,22.79
2023-09-11T19:19:22.388Z,22.85
2023-09-11T19:21:49.950Z,22.76
2023-09-11T19:24:17.598Z,22.82
2023-09-11T19:26:45.283Z,22.73
2023-09-11T19:29:13.310Z,22.66
2023-09-11T19:31:40.989Z,22.67
2023-09-11T19:34:08.835Z,22.60
2023-09-11T19:36:36.551Z,22.61
2023-09-11T19:39:04.542Z,22.61
2023-09-11T19:41:32.370Z,22.65
2023-09-11T19:43:59.909Z,22.53
2023-09-11T19:46:27.594Z,22.62
2023-09-11T19:48:55.303Z,22.61
2023-09-11T19:51:25.432Z,22.66
2023-09-11T19:53:53.096Z,22.69
2023-09-11T19:56:21.662Z,22.57
2023-09-11T19:58:49.290Z,22.59
2023-09-11T20:01:17.946Z,22.48
2023-09-11T20:03:45.671Z,22.41
2023-09-11T20:06:14.689Z,22.38
2023-09-11T20:08:42.693Z,22.45
2023-09-11T20:11:10.493Z,22.46
2023-09-11T20:13:38.052Z,22.33
2023-09-11T20:16:05.810Z,22.25
2023-09-11T20:18:34.622Z,22.24
2023-09-11T20:21:02.984Z,22.09
2023-09-11T20:23:30.666Z,22.02
2023-09-11T20:25:58.284Z,21.93
2023-09-11T20:28:25.925Z,21.84
2023-09-11T20:30:53.521Z,21.82
2023-09-11T20:33:21.170Z,21.85
2023-09-11T20:35:48.932Z,21.80
2023-09-11T20:38:21.459Z,21.81
2023-09-11T20:40:52.152Z,21.75
2023-09-11T20:43:19.700Z,21.80
2023-09-11T20:45:47.321Z,21.78
2023-09-11T20:48:15.013Z,21.85
2023-09-11T20:50:42.593Z,21.82
2023-09-11T20:53:10.161Z,21.75
2023-09-11T20:55:37.703Z,21.76
2023-09-11T20:58:05.919Z,21.74
2023-09-11T21:00:33.774Z,21.82
2023-09-11T21:03:01.478Z,21.72
2023-09-11T21:05:29.195Z,21.64
2023-09-11T21:07:57.519Z,21.57
2023-09-11T21:10:25.174Z,21.52
2023-09-11T21:12:57.972Z,21.52
2023-09-11T21:15:27.530Z,21.46
2023-09-11T21:17:55.474Z,21.44
2023-09-11T21:20:23.224Z,21.38
2023-09-11T21:22:50.850Z,21.33
2023-09-11T21:25:18.473Z,21.35
2023-09-11T21:27:46.462Z,21.35
2023-09-11T21:30:14.271Z,21.25
2023-09-11T21:32:41.931Z,21.18
2023-09-11T21:35:09.736Z,21.08
2023-09-11T21:37:37.321Z,21.09
2023-09-11T21:40:06.180Z,21.01
2023-09-11T21:42:34.098Z,20.98
2023-09-11T21:45:01.953Z,21.03
2023-09-11T21:47:29.627Z,21.12
2023-09-11T21:49:57.242Z,21.20
2023-09-11T21:52:25.024Z,21.15
2023-09-11T21:54:52.576Z,21.10
2023-09-11T21:57:20.197Z,21.18
2023-09-11T21:59:48.171Z,21.24
2023-09-11T22:02:16.557Z,21.20
2023-09-11T22:04:44.268Z,21.21
2023-09-11T22:07:12.044Z,21.00
2023-09-11T22:09:40.087Z,21.15
2023-09-11T22:12:07.848Z,21.20
2023-09-11T22:14:35.459Z,21.17
2023-09-11T22:17:03.046Z,21.15
2023-09-11T22:19:30.594Z,21.00
2023-09-11T22:21:58.286Z,21.05
2023-09-11T22:24:25.975Z,21.05
2023-09-11T22:26:53.976Z,21.00
2023-09-11T22:29:21.656Z,21.00
2023-09-11T22:31:50.415Z,20.94
2023-09-11T22:34:18.086Z,21.08
2023-09-11T22:36:45.775Z,20.99
2023-09-11T22:39:13.424Z,20.95
2023-09-11T22:41:41.048Z,20.94
2023-09-11T22:44:08.700Z,21.02
2023-09-11T22:46:36.658Z,20.97
2023-09-11T22:49:04.402Z,20.87
2023-09-11T22:51:32.067Z,20.91
2023-09-11T22:53:59.656Z,20.79
2023-09-11T22:56:27.285Z,20.82
2023-09-11T22:58:54.816Z,20.83
2023-09-11T23:01:28.030Z,20.96
2023-09-11T23:03:56.107Z,20.80
2023-09-11T23:06:23.836Z,20.77
2023-09-11T23:08:51.376Z,20.86
2023-09-11T23:11:18.907Z,20.84
2023-09-11T23:13:46.491Z,20.83
2023-09-11T23:16:14.082Z,20.77
2023-09-11T23:18:41.946Z,20.81
2023-09-11T23:21:13.748Z,20.75
2023-09-11T23:23:46.029Z,20.77
2023-09-11T23:26:13.707Z,20.62
2023-09-11T23:28:41.645Z,20.55
2023-09-11T23:31:09.545Z,20.63
2023-09-11T23:33:37.465Z,20.62
2023-09-11T23:36:05.722Z,20.53
2023-09-11T23:38:33.347Z,20.49
2023-09-11T23:41:01.047Z,20.47
2023-09-11T23:43:36.446Z,20.68
2023-09-11T23:46:05.209Z,20.50
2023-09-11T23:48:33.443Z,20.57
2023-09-11T23:51:01.361Z,20.52
2023-09-11T23:53:29.049Z,20.38
2023-09-11T23:55:56.659Z,20.43
2023-09-11T23:58:24.427Z,20.43
